Time;durP1;ratioP1;P1;durP2;ratioP2;P2;SDS_P1;SDS_P2;PMS_P1;PMS_P2;Temp;Humidity;BMP_temperature;BMP_pressure;BME280_temperature;BME280_humidity;BME280_pressure;Samples;Min_cycle;Max_cycle;Signal;HPM_P1;HPM_P2
2022/03/06 00:04:33;;;;;;;26.38;17.25;;;;;;;1.49;94.69;102466.56;10447817;28;20025;-74
2022/03/06 00:09:34;;;;;;;29.30;20.30;;;;;;;1.44;94.47;102475.84;10460560;28;20044;-74
2022/03/06 00:14:34;;;;;;;28.42;18.77;;;;;;;1.36;94.66;102482.53;10460593;28;20071;-74
2022/03/06 00:19:34;;;;;;;30.17;19.55;;;;;;;1.34;95.49;102476.44;10442839;28;20417;-74
2022/03/06 00:24:35;;;;;;;24.85;17.20;;;;;;;1.29;94.13;102485.69;10461022;28;20064;-75
2022/03/06 00:29:35;;;;;;;26.55;17.00;;;;;;;1.19;92.87;102481.91;10459122;28;20449;-74
2022/03/06 00:34:36;;;;;;;32.00;19.33;;;;;;;1.11;92.91;102491.22;10441688;28;20076;-74
2022/03/06 00:39:36;;;;;;;27.75;18.08;;;;;;;1.03;91.64;102487.34;10425566;28;20029;-75
2022/03/06 00:44:37;;;;;;;29.88;18.48;;;;;;;0.91;92.25;102489.81;10460325;28;20061;-74
2022/03/06 00:49:38;;;;;;;29.98;18.55;;;;;;;0.88;92.29;102497.16;10441788;28;20033;-74
2022/03/06 00:54:38;;;;;;;37.72;22.27;;;;;;;0.87;93.01;102511.47;10460605;28;20068;-75
2022/03/06 00:59:38;;;;;;;31.83;15.70;;;;;;;0.85;92.70;102508.03;10469246;28;20084;-74
2022/03/06 01:04:39;;;;;;;31.23;18.27;;;;;;;0.82;92.45;102518.88;10468369;28;20033;-75
2022/03/06 01:09:39;;;;;;;28.67;18.50;;;;;;;0.74;93.10;102521.16;10425247;28;20041;-74
2022/03/06 01:14:40;;;;;;;27.73;19.05;;;;;;;0.74;93.44;102523.84;10440817;28;20102;-75
2022/03/06 01:19:40;;;;;;;28.58;19.05;;;;;;;0.64;92.22;102527.06;10440452;28;20071;-74
2022/03/06 01:24:41;;;;;;;29.80;17.50;;;;;;;0.62;90.46;102528.09;10457426;28;20469;-74
2022/03/06 01:29:41;;;;;;;26.10;19.33;;;;;;;0.59;95.03;102542.47;10458099;28;20068;-74
2022/03/06 01:34:42;;;;;;;32.58;19.75;;;;;;;0.62;94.86;102528.94;10459082;28;20040;-74
2022/03/06 01:39:42;;;;;;;27.58;19.67;;;;;;;0.60;93.26;102544.16;10458724;28;20107;-74
2022/03/06 01:44:46;;;;;;;26.90;21.40;;;;;;;0.62;94.91;102550.28;10439413;28;20024;-74
2022/03/06 01:49:47;;;;;;;32.72;20.55;;;;;;;0.60;95.55;102544.16;10456056;28;20112;-74
2022/03/06 01:54:47;;;;;;;26.58;19.67;;;;;;;0.53;96.04;102550.81;10439242;28;20131;-74
2022/03/06 01:59:48;;;;;;;27.35;19.80;;;;;;;0.61;94.55;102550.38;10456531;28;20061;-74
2022/03/06 02:04:48;;;;;;;37.08;23.23;;;;;;;0.51;96.08;102563.41;10440337;28;20167;-74
2022/03/06 02:09:48;;;;;;;33.72;22.80;;;;;;;0.52;95.97;102554.44;10448744;28;20029;-75
2022/03/06 02:14:53;;;;;;;36.65;22.80;;;;;;;0.48;94.82;102560.91;10464493;28;20057;-75
2022/03/06 02:20:08;;;;;;;30.98;21.73;;;;;;;0.49;98.88;102540.44;10464304;28;20035;-74
2022/03/06 02:25:14;;;;;;;35.70;22.95;;;;;;;0.51;96.99;102552.75;10462512;28;20396;-75
2022/03/06 02:30:16;;;;;;;36.60;26.15;;;;;;;0.50;98.11;102551.00;10464082;28;20058;-74
2022/03/06 02:35:17;;;;;;;30.48;23.50;;;;;;;0.58;96.48;102554.09;10463967;28;20044;-74
2022/03/06 02:40:18;;;;;;;36.40;25.10;;;;;;;0.59;96.26;102561.13;10463285;28;20032;-74
2022/03/06 02:45:20;;;;;;;39.60;26.77;;;;;;;0.64;97.53;102559.06;10463389;28;20468;-75
2022/03/06 02:50:22;;;;;;;44.05;26.63;;;;;;;0.74;98.89;102558.50;10462699;28;20086;-74
2022/03/06 02:55:23;;;;;;;38.15;25.13;;;;;;;0.88;98.57;102556.69;10462830;28;20033;-73
2022/03/06 03:00:24;;;;;;;33.53;23.98;;;;;;;1.03;99.16;102556.72;10467227;28;20120;-73
2022/03/06 03:05:25;;;;;;;35.17;24.52;;;;;;;1.17;98.80;102559.38;10474069;28;20036;-72
2022/03/06 03:10:26;;;;;;;33.67;24.00;;;;;;;1.29;99.46;102561.28;10476218;28;20064;-72
2022/03/06 03:15:26;;;;;;;32.65;25.60;;;;;;;1.42;100.00;102566.69;10467524;28;20059;-73
2022/03/06 03:20:27;;;;;;;33.42;26.50;;;;;;;1.53;100.00;102572.22;10447755;28;20254;-72
2022/03/06 03:25:27;;;;;;;31.88;22.15;;;;;;;1.53;100.00;102566.88;10460619;28;20047;-72
2022/03/06 03:30:28;;;;;;;40.08;25.55;;;;;;;1.44;98.54;102577.28;10461464;28;20076;-72
2022/03/06 03:35:29;;;;;;;41.35;24.58;;;;;;;1.31;98.38;102587.88;10459590;28;20033;-72
2022/03/06 03:40:29;;;;;;;30.92;21.67;;;;;;;1.26;96.34;102581.97;10460552;28;20041;-73
2022/03/06 03:45:29;;;;;;;30.17;22.13;;;;;;;1.08;96.38;102576.78;10459764;28;20048;-72
2022/03/06 03:50:30;;;;;;;25.92;18.73;;;;;;;1.06;96.03;102584.06;10441949;28;20468;-72
2022/03/06 03:55:30;;;;;;;33.97;23.13;;;;;;;0.97;97.02;102578.44;10458503;28;20060;-72
2022/03/06 04:00:31;;;;;;;29.83;22.83;;;;;;;0.94;96.68;102582.13;10459174;28;20465;-72
2022/03/06 04:05:31;;;;;;;27.88;19.35;;;;;;;0.89;95.94;102590.44;10459064;28;20506;-72
2022/03/06 04:10:31;;;;;;;33.40;21.42;;;;;;;0.90;95.90;102594.81;10459996;28;20067;-72
2022/03/06 04:15:32;;;;;;;26.80;23.77;;;;;;;0.84;94.02;102580.97;10460627;28;20040;-72
2022/03/06 04:20:32;;;;;;;32.30;22.92;;;;;;;0.80;94.02;102590.09;10459645;28;20086;-72
2022/03/06 04:25:33;;;;;;;23.88;21.02;;;;;;;0.80;94.16;102600.75;10458183;28;20041;-72
2022/03/06 04:30:33;;;;;;;31.17;21.80;;;;;;;0.74;93.01;102598.50;10457482;28;20032;-72
2022/03/06 04:35:34;;;;;;;26.42;19.80;;;;;;;0.61;94.08;102611.69;10440331;28;20098;-72
2022/03/06 04:40:34;;;;;;;23.63;18.40;;;;;;;0.50;94.15;102600.78;10440248;28;20044;-72
2022/03/06 04:45:34;;;;;;;33.33;25.30;;;;;;;0.58;92.88;102611.88;10439784;28;20464;-73
2022/03/06 04:50:35;;;;;;;35.28;21.95;;;;;;;0.50;92.71;102614.97;10439555;28;20091;-74
2022/03/06 04:55:35;;;;;;;37.58;23.30;;;;;;;0.43;93.04;102619.81;10456968;28;20061;-72
2022/03/06 05:00:36;;;;;;;29.10;22.58;;;;;;;0.31;91.92;102625.84;10439143;28;20126;-72
2022/03/06 05:05:36;;;;;;;32.10;21.08;;;;;;;0.19;91.18;102632.75;10458358;28;20119;-73
2022/03/06 05:10:37;;;;;;;31.02;21.65;;;;;;;0.15;91.50;102644.50;10457154;28;20095;-72
2022/03/06 05:15:37;;;;;;;28.95;21.27;;;;;;;0.15;92.11;102647.19;10422288;28;20123;-72
2022/03/06 05:20:37;;;;;;;32.33;22.73;;;;;;;0.09;91.86;102647.50;10455257;28;20029;-72
2022/03/06 05:25:38;;;;;;;38.17;23.13;;;;;;;0.02;91.04;102651.47;10456469;28;20033;-72
2022/03/06 05:30:38;;;;;;;32.08;23.80;;;;;;;-0.07;92.22;102644.84;10455510;28;20029;-73
2022/03/06 05:35:39;;;;;;;24.08;17.48;;;;;;;-0.05;92.55;102650.09;10456697;28;20029;-72
2022/03/06 05:40:40;;;;;;;28.95;21.88;;;;;;;-0.03;92.00;102659.75;10455522;28;20087;-72
2022/03/06 05:45:40;;;;;;;35.47;22.77;;;;;;;-0.07;90.77;102668.81;10445774;28;20163;-72
2022/03/06 05:50:41;;;;;;;32.45;20.35;;;;;;;-0.07;90.77;102662.63;10464844;28;20036;-72
2022/03/06 05:55:41;;;;;;;30.65;21.98;;;;;;;-0.14;92.41;102671.91;10464206;28;20515;-73
2022/03/06 06:00:42;;;;;;;32.63;21.73;;;;;;;-0.19;91.73;102684.59;10464931;28;20120;-72
2022/03/06 06:05:42;;;;;;;30.17;21.80;;;;;;;-0.09;92.90;102692.03;10464281;28;20036;-72
2022/03/06 06:10:43;;;;;;;28.38;20.75;;;;;;;-0.10;92.44;102698.28;10445673;28;20527;-72
2022/03/06 06:15:43;;;;;;;26.92;21.83;;;;;;;-0.08;93.54;102695.56;10463239;28;20036;-73
2022/03/06 06:20:44;;;;;;;29.45;20.38;;;;;;;-0.09;92.38;102713.34;10463132;28;20365;-72
2022/03/06 06:25:44;;;;;;;22.08;18.35;;;;;;;-0.12;93.10;102712.66;10445678;28;20029;-72
2022/03/06 06:30:44;;;;;;;27.02;19.17;;;;;;;0.04;94.53;102725.97;10463313;28;20037;-72
2022/03/06 06:35:45;;;;;;;27.05;20.52;;;;;;;0.31;92.89;102732.44;10462634;28;20502;-73
2022/03/06 06:40:45;;;;;;;29.38;18.38;;;;;;;0.62;91.69;102726.22;10462288;28;20048;-73
2022/03/06 06:45:46;;;;;;;34.65;20.50;;;;;;;1.10;92.34;102726.13;10464717;28;20411;-72
2022/03/06 06:50:47;;;;;;;24.27;18.90;;;;;;;1.54;93.01;102720.78;10463908;28;20041;-74
2022/03/06 06:55:47;;;;;;;28.05;18.92;;;;;;;2.17;91.80;102724.88;10443746;28;20154;-72
2022/03/06 07:00:48;;;;;;;22.10;17.13;;;;;;;2.66;92.14;102742.22;10462024;28;20515;-72
2022/03/06 07:05:48;;;;;;;16.98;14.00;;;;;;;3.14;91.14;102740.75;10461750;28;20037;-72
2022/03/06 07:10:49;;;;;;;21.20;14.40;;;;;;;3.69;90.32;102752.16;10442577;28;20048;-73
2022/03/06 07:15:49;;;;;;;27.75;14.80;;;;;;;4.20;88.62;102757.50;10462088;28;20366;-72
2022/03/06 07:20:49;;;;;;;11.43;10.32;;;;;;;4.48;84.75;102758.19;10461852;28;20064;-72
2022/03/06 07:25:50;;;;;;;16.08;10.43;;;;;;;4.75;85.51;102779.44;10461554;28;20064;-73
2022/03/06 07:30:50;;;;;;;9.98;9.00;;;;;;;4.93;82.51;102772.69;10461263;28;20041;-73
2022/03/06 07:35:51;;;;;;;11.23;10.13;;;;;;;5.22;83.65;102778.56;10443036;28;20056;-73
2022/03/06 07:40:51;;;;;;;9.73;8.82;;;;;;;5.54;80.43;102772.56;10461752;28;20037;-72
2022/03/06 07:45:52;;;;;;;14.77;7.75;;;;;;;5.78;79.67;102791.31;10426699;28;20029;-73
2022/03/06 07:50:52;;;;;;;9.70;8.75;;;;;;;6.09;75.61;102786.22;10458925;28;20139;-73
2022/03/06 07:55:53;;;;;;;8.23;6.65;;;;;;;6.62;76.55;102776.53;10460744;28;20075;-73
2022/03/06 08:00:53;;;;;;;9.25;7.40;;;;;;;6.83;69.87;102786.50;10459073;28;20032;-73
2022/03/06 08:05:53;;;;;;;10.02;7.22;;;;;;;7.11;69.98;102787.75;10458200;28;20033;-73
2022/03/06 08:10:54;;;;;;;6.10;5.60;;;;;;;7.55;65.19;102800.16;10458982;28;20355;-73
2022/03/06 08:15:54;;;;;;;11.30;6.93;;;;;;;7.80;66.19;102807.00;10458538;28;20036;-72
2022/03/06 08:20:55;;;;;;;5.78;5.15;;;;;;;8.06;61.97;102804.72;10458397;28;20090;-73
2022/03/06 08:25:55;;;;;;;8.48;5.18;;;;;;;8.07;61.72;102806.47;10458279;28;20467;-72
2022/03/06 08:30:55;;;;;;;6.13;5.63;;;;;;;8.05;59.84;102808.44;10457384;28;20376;-73
2022/03/06 08:35:56;;;;;;;6.60;6.00;;;;;;;8.50;61.02;102821.56;10458292;28;20162;-73
2022/03/06 08:40:56;;;;;;;13.10;5.88;;;;;;;8.42;57.17;102813.28;10457823;28;20029;-78
2022/03/06 08:45:57;;;;;;;7.13;5.97;;;;;;;8.07;55.52;102816.38;10457477;28;20036;-71
2022/03/06 08:50:57;;;;;;;6.15;5.55;;;;;;;8.15;53.52;102793.13;10457593;28;20120;-72
2022/03/06 08:55:58;;;;;;;10.70;5.60;;;;;;;8.26;51.64;102813.75;10432997;28;20476;-75
2022/03/06 09:00:58;;;;;;;6.80;5.78;;;;;;;8.57;51.67;102822.72;10414547;28;20120;-72
2022/03/06 09:05:59;;;;;;;7.53;5.30;;;;;;;8.59;51.30;102820.75;10398138;28;20060;-72
2022/03/06 09:10:59;;;;;;;4.75;4.20;;;;;;;8.05;49.68;102830.00;10413763;28;20093;-72
2022/03/06 09:16:00;;;;;;;7.05;5.15;;;;;;;7.56;50.88;102828.84;10414696;28;20021;-73
2022/03/06 09:21:01;;;;;;;5.70;5.28;;;;;;;8.01;50.69;102831.28;10415879;28;20092;-73
2022/03/06 09:26:01;;;;;;;5.82;4.80;;;;;;;8.64;49.12;102824.88;10382286;28;20349;-72
2022/03/06 09:31:01;;;;;;;5.38;4.63;;;;;;;9.00;48.75;102834.22;10415129;28;20479;-72
2022/03/06 09:36:02;;;;;;;10.63;4.40;;;;;;;8.75;46.79;102827.50;10397468;28;20183;-72
2022/03/06 09:41:03;;;;;;;13.02;5.57;;;;;;;9.04;47.42;102831.09;10380792;28;20129;-72
2022/03/06 09:46:05;;;;;;;7.75;4.38;;;;;;;8.99;46.29;102836.06;10396714;28;20038;-72
2022/03/06 09:51:06;;;;;;;4.75;4.35;;;;;;;8.99;46.81;102833.34;10415147;28;20052;-72
2022/03/06 09:56:06;;;;;;;11.18;6.00;;;;;;;9.77;45.30;102825.25;10401733;28;20515;-73
2022/03/06 10:01:07;;;;;;;3.90;3.60;;;;;;;9.44;46.44;102822.00;10421512;28;20098;-72
2022/03/06 10:06:07;;;;;;;8.50;4.65;;;;;;;10.33;44.97;102832.53;10455572;28;20108;-72
2022/03/06 10:11:09;;;;;;;6.70;4.80;;;;;;;10.30;44.42;102823.84;10437358;28;20053;-72
2022/03/06 10:16:16;;;;;;;7.65;5.00;;;;;;;9.30;43.81;102852.19;10454559;28;20036;-72
2022/03/06 10:21:29;;;;;;;;;;;;;;;9.13;45.21;102828.56;10437225;28;20055;-73
2022/03/06 10:26:32;;;;;;;13.38;4.65;;;;;;;8.80;45.05;102839.56;10438236;28;19908;-72
2022/03/06 10:31:33;;;;;;;5.43;4.93;;;;;;;8.64;45.54;102841.09;10443255;28;20032;-72
2022/03/06 10:36:47;;;;;;;10.07;3.80;;;;;;;9.01;47.05;102847.59;10444685;28;20033;-72
2022/03/06 10:41:52;;;;;;;5.25;4.75;;;;;;;9.64;45.49;102851.75;10444832;28;20115;-72
2022/03/06 10:47:04;;;;;;;7.00;4.82;;;;;;;10.19;43.53;102841.09;10461440;28;20115;-72
2022/03/06 10:52:15;;;;;;;4.60;3.70;;;;;;;10.49;42.79;102850.84;10444456;28;20037;-72
2022/03/06 10:57:16;;;;;;;4.53;4.13;;;;;;;10.74;41.61;102851.16;10461493;28;20057;-70
2022/03/06 11:02:16;;;;;;;7.05;4.85;;;;;;;10.41;42.16;102832.66;10442974;28;20384;-72
2022/03/06 11:07:17;;;;;;;9.15;4.32;;;;;;;10.55;42.13;102841.28;10427037;28;20384;-73
2022/03/06 11:12:17;;;;;;;4.40;4.05;;;;;;;11.37;41.64;102835.75;10444359;28;20087;-72
2022/03/06 11:17:17;;;;;;;8.10;5.57;;;;;;;10.92;40.49;102831.22;10442255;28;20055;-72
2022/03/06 11:22:31;;;;;;;4.90;3.58;;;;;;;11.28;44.79;102838.53;10461588;28;20448;-72
2022/03/06 11:27:49;;;;;;;8.90;4.80;;;;;;;11.81;40.19;102841.22;10442489;28;20457;-73
2022/03/06 11:33:02;;;;;;;10.73;5.45;;;;;;;11.49;39.13;102838.25;10460062;28;20064;-73
2022/03/06 11:38:03;;;;;;;5.43;4.47;;;;;;;9.64;41.87;102836.38;10460294;28;20025;-72
2022/03/06 11:43:04;;;;;;;5.03;4.53;;;;;;;10.02;42.40;102842.72;10458600;28;20040;-72
2022/03/06 11:48:04;;;;;;;7.70;5.20;;;;;;;10.46;40.35;102833.06;10460454;28;20032;-72
2022/03/06 11:53:20;;;;;;;9.27;5.25;;;;;;;10.64;43.79;102829.53;10446998;28;20037;-72
2022/03/06 11:58:53;;;;;;;4.70;4.15;;;;;;;11.10;40.09;102833.09;10430925;28;20389;-72
2022/03/06 12:04:06;;;;;;;11.07;5.10;;;;;;;10.50;42.21;102824.59;10466802;28;20029;-73
2022/03/06 12:09:32;;;;;;;5.15;4.65;;;;;;;11.24;43.57;102816.31;10459071;28;20480;-72
2022/03/06 12:14:52;;;;;;;7.35;5.22;;;;;;;11.79;40.85;102804.38;10476210;28;20039;-73
2022/03/06 12:19:53;;;;;;;4.95;3.90;;;;;;;11.78;40.01;102798.09;10467888;28;20043;-73
2022/03/06 12:25:11;;;;;;;4.72;4.30;;;;;;;11.91;40.15;102796.88;10468064;28;20075;-72
2022/03/06 12:30:12;;;;;;;5.53;4.90;;;;;;;11.71;38.41;102790.72;10451755;28;20037;-73
2022/03/06 12:35:14;;;;;;;7.03;4.47;;;;;;;9.76;40.61;102802.78;10443711;28;20048;-73
2022/03/06 12:40:22;;;;;;;7.97;5.13;;;;;;;9.98;42.57;102795.28;10440149;28;20037;-73
2022/03/06 12:45:22;;;;;;;8.77;5.20;;;;;;;9.76;42.25;102796.47;10458522;28;20044;-72
2022/03/06 12:50:22;;;;;;;7.03;5.95;;;;;;;9.90;39.55;102804.16;10439566;28;20086;-72
2022/03/06 12:55:24;;;;;;;7.07;5.65;;;;;;;9.81;41.64;102794.19;10455832;28;20083;-72
2022/03/06 13:00:29;;;;;;;5.93;5.30;;;;;;;10.43;39.70;102789.16;10458083;28;20045;-72
2022/03/06 13:05:31;;;;;;;6.85;5.47;;;;;;;10.57;41.36;102774.25;10457357;28;20124;-72
2022/03/06 13:10:31;;;;;;;9.90;5.25;;;;;;;11.39;40.58;102781.31;10438425;28;20472;-71
2022/03/06 13:15:34;;;;;;;13.13;5.80;;;;;;;10.53;40.64;102773.72;10439745;28;20056;-71
2022/03/06 13:20:39;;;;;;;5.50;4.10;;;;;;;10.90;39.86;102770.88;10438461;28;20392;-70
2022/03/06 13:25:39;;;;;;;7.07;5.82;;;;;;;10.70;41.64;102772.88;10438301;28;20095;-70
2022/03/06 13:30:40;;;;;;;6.63;5.13;;;;;;;10.68;39.97;102777.59;10438487;28;20540;-71
2022/03/06 13:35:41;;;;;;;6.63;5.05;;;;;;;10.91;42.00;102767.19;10454923;28;20037;-72
2022/03/06 13:40:49;;;;;;;6.60;4.15;;;;;;;10.69;41.88;102767.63;10437787;28;20124;-71
2022/03/06 13:45:54;;;;;;;5.00;4.50;;;;;;;10.45;41.44;102760.91;10455871;28;20119;-71
2022/03/06 13:50:55;;;;;;;5.15;4.20;;;;;;;10.00;42.76;102764.38;10438825;28;20060;-71
2022/03/06 13:55:58;;;;;;;4.18;3.35;;;;;;;9.62;40.60;102762.63;10454072;28;20188;-72
2022/03/06 14:00:59;;;;;;;8.07;3.00;;;;;;;9.37;41.70;102745.16;10453506;28;20056;-72
2022/03/06 14:06:00;;;;;;;3.53;3.20;;;;;;;9.37;41.99;102747.00;10442772;28;20127;-71
2022/03/06 14:11:01;;;;;;;4.57;2.60;;;;;;;8.78;40.97;102749.72;10462556;28;20477;-72
2022/03/06 14:16:05;;;;;;;3.05;2.78;;;;;;;8.83;40.11;102742.03;10462507;28;20033;-71
2022/03/06 14:21:38;;;;;;;3.38;2.83;;;;;;;8.67;41.57;102755.25;10464692;28;20040;-72
2022/03/06 14:26:43;;;;;;;2.80;2.60;;;;;;;8.35;41.79;102745.47;10466965;28;20075;-72
2022/03/06 14:31:45;;;;;;;4.78;2.90;;;;;;;8.19;42.01;102744.28;10467326;28;20032;-71
2022/03/06 14:36:46;;;;;;;2.80;2.33;;;;;;;7.83;43.97;102754.66;10465367;28;20475;-73
2022/03/06 14:41:46;;;;;;;4.38;3.13;;;;;;;7.81;44.65;102751.22;10463708;28;20044;-72
2022/03/06 14:46:48;;;;;;;2.13;2.03;;;;;;;7.90;44.88;102739.63;10462845;28;20037;-75
2022/03/06 14:51:49;;;;;;;3.85;1.95;;;;;;;7.86;44.50;102744.44;10444275;28;20081;-79
2022/03/06 14:56:50;;;;;;;2.67;2.50;;;;;;;7.63;46.13;102738.34;10443678;28;20059;-72
2022/03/06 15:01:50;;;;;;;3.95;3.65;;;;;;;7.63;45.91;102749.16;10459843;28;20075;-71
2022/03/06 15:06:51;;;;;;;2.42;2.17;;;;;;;7.59;47.10;102734.19;10460959;28;20025;-71
2022/03/06 15:11:51;;;;;;;6.90;2.90;;;;;;;7.57;47.22;102738.03;10461161;28;20064;-72
2022/03/06 15:16:53;;;;;;;5.10;2.65;;;;;;;7.32;47.18;102728.50;10443112;28;20468;-72
2022/03/06 15:21:54;;;;;;;2.72;2.53;;;;;;;6.99;48.14;102725.84;10460646;28;20033;-72
2022/03/06 15:26:54;;;;;;;2.92;2.65;;;;;;;6.48;49.97;102731.06;10442605;28;20539;-72
2022/03/06 15:31:55;;;;;;;4.05;3.08;;;;;;;5.96;51.53;102730.72;10461215;28;20045;-72
2022/03/06 15:36:55;;;;;;;5.57;3.20;;;;;;;5.49;52.82;102750.56;10425409;28;20469;-70
2022/03/06 15:41:56;;;;;;;2.78;2.58;;;;;;;5.45;53.19;102727.59;10443011;28;20041;-74
2022/03/06 15:46:56;;;;;;;4.68;3.33;;;;;;;5.36;54.36;102739.91;10459581;28;20132;-71
2022/03/06 15:51:56;;;;;;;5.70;3.08;;;;;;;5.28;54.84;102737.81;10458784;28;20063;-71
2022/03/06 15:56:57;;;;;;;4.70;3.92;;;;;;;5.31;54.87;102728.66;10458703;28;20094;-71
2022/03/06 16:01:57;;;;;;;6.43;3.55;;;;;;;5.13;56.33;102733.59;10421986;28;20421;-71
2022/03/06 16:06:58;;;;;;;7.68;3.33;;;;;;;5.08;56.17;102739.34;10418022;28;20044;-72
2022/03/06 16:11:59;;;;;;;3.58;3.38;;;;;;;5.01;56.74;102730.03;10418386;28;20128;-72
2022/03/06 16:16:59;;;;;;;2.33;2.22;;;;;;;4.85;57.91;102741.06;10417256;28;20092;-70
2022/03/06 16:22:00;;;;;;;4.43;3.90;;;;;;;4.80;58.36;102731.66;10418230;28;20048;-71
2022/03/06 16:27:00;;;;;;;4.18;2.30;;;;;;;4.88;58.81;102740.84;10416704;28;20037;-71
2022/03/06 16:32:01;;;;;;;3.17;2.80;;;;;;;4.82;58.54;102738.63;10416601;28;20037;-71
2022/03/06 16:37:02;;;;;;;2.55;2.42;;;;;;;4.75;58.96;102753.44;10401427;28;20533;-71
2022/03/06 16:42:03;;;;;;;4.25;3.13;;;;;;;4.76;60.20;102733.72;10404161;28;20112;-70
2022/03/06 16:47:04;;;;;;;3.78;3.10;;;;;;;4.88;60.45;102737.28;10414968;28;20041;-71
2022/03/06 16:52:05;;;;;;;5.35;3.67;;;;;;;4.88;61.05;102735.47;10398138;28;20036;-70
2022/03/06 16:57:05;;;;;;;5.90;3.15;;;;;;;4.74;62.17;102741.00;10398121;28;20026;-71
2022/03/06 17:02:06;;;;;;;10.70;3.50;;;;;;;4.57;63.65;102752.16;10418608;28;20052;-71
2022/03/06 17:07:06;;;;;;;3.25;2.95;;;;;;;4.55;64.98;102737.97;10438440;28;20036;-71
2022/03/06 17:12:07;;;;;;;6.82;3.55;;;;;;;4.52;64.99;102736.38;10455844;28;20029;-70
2022/03/06 17:17:07;;;;;;;6.65;3.20;;;;;;;4.45;65.31;102755.72;10455787;28;20531;-70
2022/03/06 17:22:08;;;;;;;10.20;5.05;;;;;;;4.30;64.79;102750.47;10457701;28;20041;-71
2022/03/06 17:27:08;;;;;;;3.47;3.17;;;;;;;4.12;65.62;102754.50;10455802;28;20036;-72
2022/03/06 17:32:09;;;;;;;3.38;3.00;;;;;;;3.97;67.16;102753.78;10438187;28;20400;-71
2022/03/06 17:37:09;;;;;;;7.15;5.07;;;;;;;4.11;67.07;102761.69;10438571;28;20064;-71
2022/03/06 17:42:09;;;;;;;8.10;3.53;;;;;;;4.33;66.53;102771.72;10446673;28;20037;-70
2022/03/06 17:47:10;;;;;;;4.10;3.70;;;;;;;4.50;67.20;102781.25;10447092;28;20483;-71
2022/03/06 17:52:10;;;;;;;4.13;3.53;;;;;;;4.51;67.52;102772.22;10445548;28;20060;-71
2022/03/06 17:57:10;;;;;;;5.18;4.78;;;;;;;4.64;66.95;102772.19;10446953;28;20037;-71
2022/03/06 18:02:11;;;;;;;5.28;3.92;;;;;;;4.68;67.61;102787.06;10446141;28;20169;-72
2022/03/06 18:07:11;;;;;;;13.70;4.80;;;;;;;4.77;66.52;102780.19;10430403;28;20044;-71
2022/03/06 18:12:12;;;;;;;3.78;3.38;;;;;;;4.61;68.10;102788.50;10445618;28;20041;-71
2022/03/06 18:17:13;;;;;;;4.80;3.90;;;;;;;4.51;68.13;102785.63;10445581;28;20393;-72
2022/03/06 18:22:13;;;;;;;3.92;3.17;;;;;;;4.45;67.76;102791.44;10461294;28;20032;-70
2022/03/06 18:27:14;;;;;;;6.75;3.97;;;;;;;4.44;67.22;102789.75;10463039;28;20033;-71
2022/03/06 18:32:15;;;;;;;5.82;4.07;;;;;;;4.34;68.43;102789.56;10461701;28;20061;-71
2022/03/06 18:37:15;;;;;;;6.72;3.70;;;;;;;4.14;67.97;102803.50;10428161;28;20361;-71
2022/03/06 18:42:16;;;;;;;3.08;2.88;;;;;;;3.86;69.61;102808.16;10445700;28;20068;-71
2022/03/06 18:47:16;;;;;;;5.15;3.13;;;;;;;3.83;69.94;102804.78;10463314;28;20025;-71
2022/03/06 18:52:17;;;;;;;3.60;3.28;;;;;;;3.82;67.69;102798.56;10444935;28;20040;-71
2022/03/06 18:57:17;;;;;;;4.03;3.63;;;;;;;3.72;67.84;102794.84;10461036;28;20052;-70
2022/03/06 19:02:18;;;;;;;3.30;3.00;;;;;;;3.58;68.10;102800.28;10462331;28;20064;-71
2022/03/06 19:07:18;;;;;;;4.45;4.00;;;;;;;3.47;69.70;102809.91;10445240;28;20112;-70
2022/03/06 19:12:18;;;;;;;5.43;4.13;;;;;;;3.49;70.06;102807.97;10442937;28;20474;-70
2022/03/06 19:17:19;;;;;;;9.80;4.05;;;;;;;3.61;72.54;102808.13;10462217;28;20095;-70
2022/03/06 19:22:19;;;;;;;4.10;3.38;;;;;;;3.81;71.41;102812.97;10443679;28;20033;-71
2022/03/06 19:27:20;;;;;;;5.28;4.78;;;;;;;3.90;72.27;102806.09;10444419;28;20449;-70
2022/03/06 19:32:20;;;;;;;5.43;4.10;;;;;;;3.91;72.06;102805.97;10459765;28;20040;-71
2022/03/06 19:37:21;;;;;;;6.70;4.32;;;;;;;3.76;74.47;102799.00;10461005;28;20029;-72
2022/03/06 19:42:21;;;;;;;5.30;3.70;;;;;;;3.62;72.39;102799.13;10460037;28;20048;-70
2022/03/06 19:47:22;;;;;;;7.75;5.25;;;;;;;3.39;71.82;102800.69;10442258;28;20111;-70
2022/03/06 19:52:22;;;;;;;8.30;4.88;;;;;;;3.18;70.44;102811.00;10459673;28;20052;-70
2022/03/06 19:57:23;;;;;;;7.25;5.70;;;;;;;2.95;70.34;102812.53;10443623;28;20068;-71
2022/03/06 20:02:23;;;;;;;5.47;4.63;;;;;;;2.77;70.00;102814.59;10422805;28;20572;-70
2022/03/06 20:07:25;;;;;;;11.18;5.57;;;;;;;2.62;70.29;102815.59;10400603;28;20061;-70
2022/03/06 20:12:26;;;;;;;17.13;6.88;;;;;;;2.53;71.22;102817.91;10418587;28;20033;-70
2022/03/06 20:17:26;;;;;;;11.68;4.82;;;;;;;2.43;70.53;102824.78;10419854;28;20060;-71
2022/03/06 20:22:26;;;;;;;7.32;5.43;;;;;;;2.27;69.94;102810.69;10417953;28;20041;-70
2022/03/06 20:27:27;;;;;;;13.65;5.18;;;;;;;2.16;70.45;102824.69;10400337;28;20473;-71
2022/03/06 20:32:28;;;;;;;14.27;5.90;;;;;;;2.08;69.90;102822.50;10418969;28;20040;-71
2022/03/06 20:37:29;;;;;;;9.77;5.90;;;;;;;2.00;70.80;102834.63;10417754;28;20038;-72
2022/03/06 20:42:29;;;;;;;6.35;5.72;;;;;;;1.90;70.73;102828.13;10417590;28;20037;-71
2022/03/06 20:47:30;;;;;;;8.23;7.15;;;;;;;1.84;71.25;102824.84;10417224;28;20033;-71
2022/03/06 20:52:30;;;;;;;17.25;5.70;;;;;;;1.71;70.73;102831.06;10416424;28;20036;-70
2022/03/06 20:57:30;;;;;;;13.05;6.55;;;;;;;1.66;70.60;102834.00;10398196;28;20036;-71
2022/03/06 21:02:31;;;;;;;7.43;6.28;;;;;;;1.65;71.37;102842.09;10416036;28;20092;-71
2022/03/06 21:07:32;;;;;;;6.10;5.68;;;;;;;1.88;72.57;102838.03;10415300;28;20088;-70
2022/03/06 21:12:32;;;;;;;12.02;7.43;;;;;;;2.12;72.26;102843.69;10415589;28;20069;-71
2022/03/06 21:17:33;;;;;;;8.18;7.03;;;;;;;2.35;74.09;102847.59;10397035;28;20536;-71
2022/03/06 21:22:33;;;;;;;8.85;6.18;;;;;;;2.55;73.89;102849.88;10397826;28;20035;-72
2022/03/06 21:27:33;;;;;;;17.95;7.63;;;;;;;2.60;73.49;102850.47;10414834;28;20433;-72
2022/03/06 21:32:34;;;;;;;17.80;6.45;;;;;;;2.60;73.26;102849.59;10415651;28;20470;-72
2022/03/06 21:37:34;;;;;;;9.70;7.20;;;;;;;2.47;72.54;102846.84;10415382;28;20113;-72
2022/03/06 21:42:35;;;;;;;14.38;6.13;;;;;;;2.20;72.83;102846.75;10397743;28;20091;-72
2022/03/06 21:47:35;;;;;;;9.82;7.15;;;;;;;2.06;73.42;102853.81;10416447;28;20351;-72
2022/03/06 21:52:36;;;;;;;6.35;5.72;;;;;;;2.17;73.82;102861.19;10418969;28;20385;-71
2022/03/06 21:57:37;;;;;;;13.55;6.82;;;;;;;2.36;74.88;102860.00;10419019;28;20117;-72
2022/03/06 22:02:38;;;;;;;17.20;8.68;;;;;;;2.55;75.33;102850.75;10453680;28;20056;-72
2022/03/06 22:07:40;;;;;;;14.00;7.30;;;;;;;2.60;74.53;102849.59;10421745;28;20037;-72
2022/03/06 22:12:41;;;;;;;11.70;8.00;;;;;;;2.71;74.86;102857.78;10439082;28;20056;-72
2022/03/06 22:17:42;;;;;;;14.23;6.55;;;;;;;2.78;76.23;102853.78;10456339;28;20031;-72
2022/03/06 22:22:43;;;;;;;10.68;7.32;;;;;;;2.93;78.90;102851.91;10438654;28;20037;-71
2022/03/06 22:27:44;;;;;;;7.80;6.63;;;;;;;3.03;81.66;102855.69;10444396;28;20044;-71
2022/03/06 22:32:44;;;;;;;13.30;7.55;;;;;;;3.09;84.38;102857.97;10462996;28;20040;-71
2022/03/06 22:37:45;;;;;;;17.30;8.20;;;;;;;3.13;85.96;102861.34;10462787;28;20053;-72
2022/03/06 22:42:45;;;;;;;8.65;7.10;;;;;;;3.13;85.23;102858.66;10462674;28;20033;-70
2022/03/06 22:47:45;;;;;;;13.50;6.45;;;;;;;3.11;81.85;102836.47;10444787;28;20040;-71
2022/03/06 22:52:46;;;;;;;19.52;8.25;;;;;;;3.21;79.76;102845.59;10462277;28;20033;-71
2022/03/06 22:57:46;;;;;;;12.32;6.90;;;;;;;3.17;81.93;102852.13;10462031;28;20057;-71
2022/03/06 23:02:47;;;;;;;12.90;6.57;;;;;;;3.16;84.59;102856.63;10461713;28;20044;-71
2022/03/06 23:07:47;;;;;;;9.18;7.65;;;;;;;3.13;83.71;102843.44;10463327;28;20069;-70